Terminal Aerodrome Forecast
Issued by NWS Northern Indiana

Home | Current Version | Previous Version | Text Only | Print | Product List | Glossary Off
Versions: 1 2 3 4 5 6 7 8 9 10 11 12 13 14 15 16 17 18 19 20 21 22

000
FTUS43 KIWX 242155 AAC
TAFFWA
TAF AMD
KFWA 242155Z 2422/2518 04012KT 3SM TSRA BR SCT012 BKN040CB BKN080
     FM250000 04005KT 4SM SHRA BR VCTS OVC030CB
     FM250600 02006KT 3SM SHRA BR OVC008
     FM251200 34007KT P6SM VCSH OVC008
     FM251600 32009KT P6SM VCSH OVC020=

USA.gov is the U.S. government's official web portal to all federal, state and local government web resources and services.